createdAt,value
2023-03-15T00:00:25.483Z,98345.13
2023-03-15T00:02:57.099Z,98351.56
2023-03-15T00:05:27.197Z,98349.94
2023-03-15T00:07:58.507Z,98359.44
2023-03-15T00:10:29.367Z,98365.69
2023-03-15T00:12:57.759Z,98373.94
2023-03-15T00:15:25.955Z,98367.88
2023-03-15T00:17:54.106Z,98375.94
2023-03-15T00:20:23.934Z,98372.50
2023-03-15T00:22:56.341Z,98374.66
2023-03-15T00:25:24.441Z,98374.66
2023-03-15T00:28:02.100Z,98389.44
2023-03-15T00:30:30.513Z,98379.63
2023-03-15T00:32:58.813Z,98380.28
2023-03-15T00:35:27.083Z,98379.47
2023-03-15T00:37:57.908Z,98379.00
2023-03-15T00:40:26.457Z,98381.03
2023-03-15T00:43:01.433Z,98382.84
2023-03-15T00:45:29.506Z,98381.19
2023-03-15T00:47:58.087Z,98389.25
2023-03-15T00:50:26.902Z,98390.44
2023-03-15T00:52:56.467Z,98397.66
2023-03-15T00:55:24.779Z,98405.53
2023-03-15T00:57:52.945Z,98404.91
2023-03-15T01:00:24.770Z,98408.72
2023-03-15T01:02:54.658Z,98410.53
2023-03-15T01:05:23.310Z,98415.78
2023-03-15T01:07:52.911Z,98420.22
2023-03-15T01:10:22.835Z,98426.47
2023-03-15T01:12:50.988Z,98422.19
2023-03-15T01:15:19.531Z,98429.25
2023-03-15T01:17:47.727Z,98423.38
2023-03-15T01:20:16.581Z,98423.19
2023-03-15T01:22:45.141Z,98426.63
2023-03-15T01:25:13.730Z,98430.25
2023-03-15T01:27:43.301Z,98422.38
2023-03-15T01:30:12.682Z,98428.63
2023-03-15T01:32:40.927Z,98440.09
2023-03-15T01:35:10.153Z,98443.56
2023-03-15T01:37:38.288Z,98441.91
2023-03-15T01:40:09.438Z,98444.53
2023-03-15T01:42:55.886Z,98448.16
2023-03-15T01:46:05.594Z,98449.97
2023-03-15T01:48:38.222Z,98446.69
2023-03-15T01:51:13.939Z,98454.56
2023-03-15T01:53:50.037Z,98452.13
2023-03-15T01:56:18.636Z,98463.44
2023-03-15T01:58:50.112Z,98468.06
2023-03-15T02:01:18.924Z,98474.94
2023-03-15T02:03:51.590Z,98467.06
2023-03-15T02:06:21.554Z,98473.31
2023-03-15T02:08:53.876Z,98479.56
2023-03-15T02:11:25.609Z,98476.13
2023-03-15T02:13:58.108Z,98483.53
2023-03-15T02:16:26.671Z,98487.31
2023-03-15T02:18:55.416Z,98489.13
2023-03-15T02:21:34.367Z,98490.28
2023-03-15T02:24:13.936Z,98493.72
2023-03-15T02:26:46.194Z,98504.41
2023-03-15T02:29:18.660Z,98498.53
2023-03-15T02:32:04.832Z,98511.44
2023-03-15T02:34:33.488Z,98504.59
2023-03-15T02:37:02.363Z,98507.22
2023-03-15T02:39:30.576Z,98512.66
2023-03-15T02:42:01.614Z,98515.44
2023-03-15T02:44:34.379Z,98514.63
2023-03-15T02:47:06.297Z,98519.69
2023-03-15T02:49:39.136Z,98520.69
2023-03-15T02:52:07.965Z,98524.47
2023-03-15T02:54:36.775Z,98526.09
2023-03-15T02:57:05.344Z,98526.09
2023-03-15T02:59:34.886Z,98531.53
2023-03-15T03:02:03.181Z,98526.28
2023-03-15T03:04:31.819Z,98538.59
2023-03-15T03:07:00.344Z,98545.00
2023-03-15T03:09:29.691Z,98540.56
2023-03-15T03:12:00.614Z,98544.00
2023-03-15T03:14:28.773Z,98558.94
2023-03-15T03:16:58.696Z,98550.25
2023-03-15T03:19:27.013Z,98555.66
2023-03-15T03:21:55.177Z,98553.19
2023-03-15T03:24:25.919Z,98555.81
2023-03-15T03:26:58.058Z,98562.09
2023-03-15T03:29:27.300Z,98563.06
2023-03-15T03:31:57.537Z,98566.84
2023-03-15T03:34:25.652Z,98569.66
2023-03-15T03:36:57.110Z,98577.03
2023-03-15T03:39:25.263Z,98583.28
2023-03-15T03:41:56.938Z,98583.28
2023-03-15T03:44:25.146Z,98575.56
2023-03-15T03:46:53.581Z,98572.34
2023-03-15T03:49:23.132Z,98575.75
2023-03-15T03:51:51.517Z,98584.44
2023-03-15T03:54:21.462Z,98587.06
2023-03-15T03:56:50.408Z,98587.88
2023-03-15T03:59:18.712Z,98600.81
2023-03-15T04:01:48.329Z,98598.03
2023-03-15T04:04:16.502Z,98594.75
2023-03-15T04:06:48.386Z,98599.19
2023-03-15T04:09:18.857Z,98609.34
2023-03-15T04:11:47.412Z,98607.53
2023-03-15T04:14:16.780Z,98611.97
2023-03-15T04:16:48.271Z,98620.66
2023-03-15T04:19:18.721Z,98613.94
2023-03-15T04:22:06.975Z,98627.38
2023-03-15T04:24:35.735Z,98632.63
2023-03-15T04:27:04.146Z,98635.88
2023-03-15T04:29:32.253Z,98633.44
2023-03-15T04:32:01.832Z,98629.81
2023-03-15T04:34:30.485Z,98638.50
2023-03-15T04:36:59.165Z,98639.34
2023-03-15T04:39:28.947Z,98633.25
2023-03-15T04:41:57.018Z,98644.41
2023-03-15T04:44:26.773Z,98635.72
2023-03-15T04:46:55.448Z,98635.88
2023-03-15T04:49:23.871Z,98639.34
2023-03-15T04:51:52.068Z,98633.59
2023-03-15T04:54:20.762Z,98648.19
2023-03-15T04:56:50.265Z,98640.47
2023-03-15T04:59:21.396Z,98649.19
2023-03-15T05:01:49.753Z,98650.16
2023-03-15T05:04:18.886Z,98661.47
2023-03-15T05:06:47.117Z,98665.09
2023-03-15T05:09:26.603Z,98658.03
2023-03-15T05:11:59.084Z,98667.72
2023-03-15T05:14:27.323Z,98672.94
2023-03-15T05:16:56.460Z,98670.31
2023-03-15T05:19:24.728Z,98673.78
2023-03-15T05:21:54.908Z,98672.13
2023-03-15T05:24:23.667Z,98675.56
2023-03-15T05:26:54.427Z,98679.84
2023-03-15T05:29:24.407Z,98684.25
2023-03-15T05:31:53.623Z,98684.91
2023-03-15T05:34:24.378Z,98684.09
2023-03-15T05:36:52.762Z,98696.88
2023-03-15T05:39:23.091Z,98700.94
2023-03-15T05:41:51.893Z,98707.66
2023-03-15T05:44:20.152Z,98706.69
2023-03-15T05:46:49.672Z,98717.84
2023-03-15T05:49:17.860Z,98720.78
2023-03-15T05:51:45.973Z,98729.28
2023-03-15T05:54:14.512Z,98738.44
2023-03-15T05:56:42.718Z,98737.13
2023-03-15T05:59:12.753Z,98740.25
2023-03-15T06:01:40.860Z,98757.09
2023-03-15T06:04:10.592Z,98754.97
2023-03-15T06:06:38.974Z,98762.13
2023-03-15T06:09:07.184Z,98768.53
2023-03-15T06:11:35.359Z,98771.63
2023-03-15T06:14:03.769Z,98774.38
2023-03-15T06:16:31.926Z,98777.97
2023-03-15T06:19:00.175Z,98794.19
2023-03-15T06:21:29.800Z,98809.44
2023-03-15T06:23:58.149Z,98801.06
2023-03-15T06:26:26.523Z,98810.88
2023-03-15T06:28:54.716Z,98810.19
2023-03-15T06:31:22.901Z,98815.38
2023-03-15T06:33:51.142Z,98820.47
2023-03-15T06:36:19.466Z,98826.97
2023-03-15T06:38:49.168Z,98838.78
2023-03-15T06:41:27.069Z,98838.88
2023-03-15T06:43:55.239Z,98842.47
2023-03-15T06:46:23.647Z,98848.66
2023-03-15T06:48:51.852Z,98847.97
2023-03-15T06:51:20.096Z,98854.97
2023-03-15T06:53:49.742Z,98862.66
2023-03-15T06:56:17.981Z,98860.63
2023-03-15T06:58:46.210Z,98863.41
2023-03-15T07:01:15.130Z,98869.78
2023-03-15T07:03:43.682Z,98879.41
2023-03-15T07:06:12.316Z,98884.34
2023-03-15T07:08:41.110Z,98877.53
2023-03-15T07:11:11.202Z,98890.81
2023-03-15T07:13:39.474Z,98886.63
2023-03-15T07:16:08.543Z,98893.38
2023-03-15T07:18:36.780Z,98896.00
2023-03-15T07:21:10.830Z,98899.28
2023-03-15T07:23:38.969Z,98902.19
2023-03-15T07:26:07.099Z,98909.72
2023-03-15T07:28:36.689Z,98912.00
2023-03-15T07:31:07.152Z,98918.56
2023-03-15T07:33:36.533Z,98927.75
2023-03-15T07:36:06.317Z,98917.47
2023-03-15T07:38:35.853Z,98926.69
2023-03-15T07:41:05.204Z,98933.84
2023-03-15T07:43:33.796Z,98933.97
2023-03-15T07:46:03.809Z,98937.41
2023-03-15T07:48:32.071Z,98945.41
2023-03-15T07:51:00.482Z,98951.13
2023-03-15T07:53:28.919Z,98945.69
2023-03-15T07:55:57.397Z,98959.50
2023-03-15T07:58:26.101Z,98956.53
2023-03-15T08:00:56.515Z,98953.16
2023-03-15T08:03:27.761Z,98959.72
2023-03-15T08:05:57.630Z,98956.72
2023-03-15T08:08:26.406Z,98973.44
2023-03-15T08:10:57.059Z,98969.44
2023-03-15T08:13:25.929Z,98966.06
2023-03-15T08:15:54.368Z,98962.91
2023-03-15T08:18:23.005Z,98970.44
2023-03-15T08:20:53.066Z,98976.19
2023-03-15T08:23:22.208Z,98991.44
2023-03-15T08:25:50.525Z,98988.28
2023-03-15T08:28:18.809Z,98991.97
2023-03-15T08:30:47.303Z,99002.47
2023-03-15T08:33:16.047Z,98995.53
2023-03-15T08:35:45.014Z,98999.63
2023-03-15T08:38:14.682Z,99008.19
2023-03-15T08:40:42.865Z,99013.09
2023-03-15T08:43:11.038Z,99012.38
2023-03-15T08:45:56.762Z,99010.19
2023-03-15T08:48:27.395Z,99024.25
2023-03-15T08:50:55.684Z,99021.34
2023-03-15T08:53:25.590Z,99022.88
2023-03-15T08:55:53.848Z,99031.06
2023-03-15T08:58:21.986Z,99027.22
2023-03-15T09:00:51.544Z,99040.88
2023-03-15T09:03:19.848Z,99043.78
2023-03-15T09:05:48.068Z,99038.75
2023-03-15T09:08:17.046Z,99033.28
2023-03-15T09:10:48.420Z,99037.22
2023-03-15T09:13:16.517Z,99050.47
2023-03-15T09:15:44.612Z,99052.38
2023-03-15T09:18:13.784Z,99057.09
2023-03-15T09:20:41.947Z,99056.91
2023-03-15T09:23:10.162Z,99063.66
2023-03-15T09:25:38.520Z,99087.25
2023-03-15T09:28:10.667Z,99083.78
2023-03-15T09:30:40.907Z,99088.50
2023-03-15T09:33:09.598Z,99095.03
2023-03-15T09:35:37.994Z,99097.13
2023-03-15T09:38:06.433Z,99106.16
2023-03-15T09:40:36.411Z,99101.03
2023-03-15T09:43:16.354Z,99113.50
2023-03-15T09:46:01.907Z,99120.06
2023-03-15T09:48:35.618Z,99124.16
2023-03-15T09:51:08.339Z,99124.97
2023-03-15T09:53:41.827Z,99137.69
2023-03-15T09:56:24.300Z,99138.75
2023-03-15T09:58:58.219Z,99145.38
2023-03-15T10:01:32.219Z,99153.81
2023-03-15T10:04:07.223Z,99149.53
2023-03-15T10:06:37.849Z,99151.53
2023-03-15T10:09:15.138Z,99165.03
2023-03-15T10:11:51.330Z,99160.13
2023-03-15T10:14:33.978Z,99168.50
2023-03-15T10:17:10.958Z,99178.31
2023-03-15T10:19:46.563Z,99174.66
2023-03-15T10:22:24.452Z,99183.88
2023-03-15T10:24:56.637Z,99185.50
2023-03-15T10:27:33.234Z,99187.16
2023-03-15T10:30:04.432Z,99188.59
2023-03-15T10:32:39.338Z,99196.78
2023-03-15T10:35:15.838Z,99194.81
2023-03-15T10:37:44.288Z,99212.78
2023-03-15T10:40:16.333Z,99205.91
2023-03-15T10:42:46.146Z,99210.59
2023-03-15T10:45:23.625Z,99216.13
2023-03-15T10:48:00.960Z,99226.06
2023-03-15T10:50:44.025Z,99215.84
2023-03-15T10:53:20.664Z,99218.69
2023-03-15T10:55:50.743Z,99218.56
2023-03-15T10:58:30.444Z,99229.59
2023-03-15T11:01:07.480Z,99223.72
2023-03-15T11:03:36.572Z,99235.56
2023-03-15T11:06:19.840Z,99239.66
2023-03-15T11:08:49.534Z,99246.03
2023-03-15T11:11:17.673Z,99248.50
2023-03-15T11:14:00.901Z,99257.06
2023-03-15T11:16:36.187Z,99256.47
2023-03-15T11:19:13.245Z,99254.84
2023-03-15T11:21:46.340Z,99256.66
2023-03-15T11:24:24.254Z,99255.03
2023-03-15T11:26:55.158Z,99262.41
2023-03-15T11:29:27.094Z,99253.69
2023-03-15T11:31:58.214Z,99258.38
2023-03-15T11:34:37.182Z,99263.88
2023-03-15T11:37:13.158Z,99267.88
2023-03-15T11:39:45.771Z,99269.72
2023-03-15T11:42:21.411Z,99270.16
2023-03-15T11:44:52.881Z,99276.47
2023-03-15T11:47:33.430Z,99278.56
2023-03-15T11:50:02.069Z,99276.31
2023-03-15T11:52:31.154Z,99287.13
2023-03-15T11:55:01.770Z,99294.69
2023-03-15T11:57:45.060Z,99286.34
2023-03-15T12:00:22.195Z,99285.97
2023-03-15T12:02:54.992Z,99292.13
2023-03-15T12:05:54.636Z,99300.13
2023-03-15T12:08:26.891Z,99291.59
2023-03-15T12:10:55.646Z,99303.31
2023-03-15T12:13:29.053Z,99305.34
2023-03-15T12:15:58.344Z,99320.25
2023-03-15T12:18:43.785Z,99318.22
2023-03-15T12:21:16.053Z,99302.75
2023-03-15T12:23:57.959Z,99314.00
2023-03-15T12:26:39.802Z,99317.25
2023-03-15T12:29:14.525Z,99318.88
2023-03-15T12:31:53.213Z,99329.94
2023-03-15T12:34:31.908Z,99321.16
2023-03-15T12:37:04.647Z,99333.41
2023-03-15T12:39:46.389Z,99329.31
2023-03-15T12:42:50.561Z,99339.09
2023-03-15T12:45:48.989Z,99347.06
2023-03-15T12:48:35.609Z,99354.25
2023-03-15T12:51:16.140Z,99365.47
2023-03-15T12:53:50.586Z,99362.28
2023-03-15T12:56:42.166Z,99368.00
2023-03-15T12:59:33.683Z,99381.34
2023-03-15T13:02:09.549Z,99366.97
2023-03-15T13:04:38.538Z,99367.97
2023-03-15T13:07:48.899Z,99376.34
2023-03-15T13:10:40.483Z,99393.25
2023-03-15T13:13:20.937Z,99380.22
2023-03-15T13:16:02.237Z,99380.34
2023-03-15T13:18:34.508Z,99395.63
2023-03-15T13:21:15.208Z,99391.19
2023-03-15T13:23:52.048Z,99401.72
2023-03-15T13:26:50.061Z,99411.63
2023-03-15T13:29:21.268Z,99411.19
2023-03-15T13:32:02.294Z,99413.47
2023-03-15T13:34:34.413Z,99414.31
2023-03-15T13:37:04.183Z,99406.06
2023-03-15T13:39:35.821Z,99406.72
2023-03-15T13:42:06.509Z,99413.88
2023-03-15T13:44:35.254Z,99416.72
2023-03-15T13:47:03.751Z,99427.78
2023-03-15T13:49:33.707Z,99432.00
2023-03-15T13:52:05.465Z,99435.53
2023-03-15T13:54:36.310Z,99435.97
2023-03-15T13:57:10.869Z,99449.09
2023-03-15T13:59:43.495Z,99437.50
2023-03-15T14:02:17.454Z,99450.66
2023-03-15T14:04:52.195Z,99462.53
2023-03-15T14:07:27.846Z,99453.34
2023-03-15T14:10:27.051Z,99453.97
2023-03-15T14:12:56.314Z,99458.13
2023-03-15T14:15:29.738Z,99466.13
2023-03-15T14:18:05.146Z,99487.47
2023-03-15T14:20:43.568Z,99467.31
2023-03-15T14:23:15.273Z,99475.94
2023-03-15T14:25:46.261Z,99483.41
2023-03-15T14:28:17.612Z,99477.16
2023-03-15T14:30:58.237Z,99478.78
2023-03-15T14:33:31.570Z,99472.06
2023-03-15T14:36:02.040Z,99473.69
2023-03-15T14:38:34.920Z,99484.09
2023-03-15T14:41:23.629Z,99490.19
2023-03-15T14:43:51.881Z,99483.81
2023-03-15T14:46:20.459Z,99492.41
2023-03-15T14:48:50.713Z,99494.44
2023-03-15T14:51:21.201Z,99495.06
2023-03-15T14:53:53.437Z,99495.06
2023-03-15T14:56:23.495Z,99497.22
2023-03-15T14:58:54.276Z,99511.09
2023-03-15T15:01:26.119Z,99508.63
2023-03-15T15:03:58.936Z,99514.50
2023-03-15T15:06:29.549Z,99514.31
2023-03-15T15:08:59.956Z,99513.50
2023-03-15T15:11:29.963Z,99514.25
2023-03-15T15:13:58.228Z,99515.38
2023-03-15T15:16:26.943Z,99524.13
2023-03-15T15:18:55.773Z,99534.69
2023-03-15T15:21:27.569Z,99524.03
2023-03-15T15:23:59.249Z,99533.94
2023-03-15T15:26:31.411Z,99554.72
2023-03-15T15:29:00.951Z,99547.72
2023-03-15T15:31:33.813Z,99545.44
2023-03-15T15:34:08.655Z,99560.09
2023-03-15T15:36:39.983Z,99564.75
2023-03-15T15:39:19.470Z,99564.13
2023-03-15T15:41:51.583Z,99568.16
2023-03-15T15:44:21.998Z,99562.84
2023-03-15T15:46:50.690Z,99563.84
2023-03-15T15:49:19.664Z,99580.16
2023-03-15T15:51:50.608Z,99580.34
2023-03-15T15:54:21.719Z,99583.72
2023-03-15T15:56:54.160Z,99596.34
2023-03-15T15:59:25.635Z,99597.56
2023-03-15T16:02:02.950Z,99598.09
2023-03-15T16:04:33.056Z,99599.47
2023-03-15T16:07:03.598Z,99608.63
2023-03-15T16:09:35.975Z,99598.59
2023-03-15T16:12:13.899Z,99614.84
2023-03-15T16:14:42.528Z,99610.09
2023-03-15T16:17:13.660Z,99614.50
2023-03-15T16:19:41.907Z,99615.03
2023-03-15T16:22:10.538Z,99622.91
2023-03-15T16:24:43.395Z,99621.81
2023-03-15T16:27:16.830Z,99627.63
2023-03-15T16:29:50.070Z,99640.63
2023-03-15T16:32:32.919Z,99642.16
2023-03-15T16:35:09.515Z,99644.72
2023-03-15T16:37:38.170Z,99658.47
2023-03-15T16:40:10.976Z,99657.94
2023-03-15T16:42:41.064Z,99653.88
2023-03-15T16:45:14.099Z,99672.41
2023-03-15T16:47:42.805Z,99671.13
2023-03-15T16:50:12.232Z,99671.00
2023-03-15T16:52:42.166Z,99686.41
2023-03-15T16:55:14.427Z,99684.47
2023-03-15T16:57:44.790Z,99687.19
2023-03-15T17:00:17.243Z,99696.81
2023-03-15T17:02:47.783Z,99686.47
2023-03-15T17:05:19.965Z,99690.63
2023-03-15T17:07:49.663Z,99695.97
2023-03-15T17:10:23.320Z,99691.56
2023-03-15T17:12:54.545Z,99702.81
2023-03-15T17:15:25.606Z,99705.16
2023-03-15T17:17:57.261Z,99713.75
2023-03-15T17:20:27.156Z,99715.63
2023-03-15T17:22:57.779Z,99719.13
2023-03-15T17:25:26.730Z,99722.44
2023-03-15T17:27:57.995Z,99727.56
2023-03-15T17:30:27.687Z,99722.00
2023-03-15T17:32:56.321Z,99724.47
2023-03-15T17:35:29.405Z,99740.81
2023-03-15T17:37:57.941Z,99746.47
2023-03-15T17:40:29.199Z,99739.69
2023-03-15T17:43:01.129Z,99749.09
2023-03-15T17:45:31.092Z,99753.09
2023-03-15T17:47:59.848Z,99758.03
2023-03-15T17:50:31.677Z,99766.44
2023-03-15T17:53:01.796Z,99761.69
2023-03-15T17:55:31.495Z,99767.28
2023-03-15T17:58:01.084Z,99768.91
2023-03-15T18:00:32.600Z,99766.44
2023-03-15T18:03:01.533Z,99772.72
2023-03-15T18:05:30.751Z,99783.63
2023-03-15T18:08:00.121Z,99784.75
2023-03-15T18:10:35.850Z,99784.25
2023-03-15T18:13:06.086Z,99785.59
2023-03-15T18:15:34.250Z,99784.09
2023-03-15T18:18:04.107Z,99794.47
2023-03-15T18:20:34.049Z,99798.44
2023-03-15T18:23:02.332Z,99801.56
2023-03-15T18:25:33.928Z,99799.72
2023-03-15T18:28:03.087Z,99807.31
2023-03-15T18:30:33.836Z,99812.53
2023-03-15T18:33:03.831Z,99813.88
2023-03-15T18:35:34.405Z,99824.88
2023-03-15T18:38:04.137Z,99825.53
2023-03-15T18:40:33.807Z,99832.94
2023-03-15T18:43:04.285Z,99829.09
2023-03-15T18:45:36.362Z,99841.75
2023-03-15T18:48:04.743Z,99842.09
2023-03-15T18:50:33.662Z,99854.63
2023-03-15T18:53:05.010Z,99855.06
2023-03-15T18:55:42.328Z,99863.47
2023-03-15T18:58:13.201Z,99856.03
2023-03-15T19:00:42.929Z,99857.16
2023-03-15T19:03:12.334Z,99861.91
2023-03-15T19:05:40.601Z,99866.69
2023-03-15T19:08:11.211Z,99874.88
2023-03-15T19:10:40.469Z,99883.09
2023-03-15T19:13:08.785Z,99891.16
2023-03-15T19:15:37.107Z,99893.25
2023-03-15T19:18:07.109Z,99901.66
2023-03-15T19:20:36.990Z,99901.94
2023-03-15T19:23:08.232Z,99901.75
2023-03-15T19:25:36.438Z,99904.97
2023-03-15T19:28:04.704Z,99913.03
2023-03-15T19:30:33.889Z,99918.59
2023-03-15T19:33:02.145Z,99920.41
2023-03-15T19:35:33.549Z,99921.38
2023-03-15T19:38:01.915Z,99928.78
2023-03-15T19:40:30.586Z,99924.94
2023-03-15T19:42:58.861Z,99926.38
2023-03-15T19:45:27.594Z,99927.78
2023-03-15T19:47:55.767Z,99930.88
2023-03-15T19:50:24.242Z,99931.00
2023-03-15T19:52:53.864Z,99936.47
2023-03-15T19:55:22.710Z,99932.81
2023-03-15T19:57:50.870Z,99933.16
2023-03-15T20:00:20.795Z,99929.84
2023-03-15T20:02:49.185Z,99938.41
2023-03-15T20:05:20.378Z,99932.31
2023-03-15T20:07:50.731Z,99936.75
2023-03-15T20:10:22.425Z,99950.59
2023-03-15T20:12:52.189Z,99946.81
2023-03-15T20:15:21.169Z,99951.63
2023-03-15T20:17:49.340Z,99941.94
2023-03-15T20:20:19.046Z,99944.56
2023-03-15T20:22:48.044Z,99950.81
2023-03-15T20:25:17.653Z,99951.94
2023-03-15T20:27:47.417Z,99947.13
2023-03-15T20:30:17.306Z,99954.63
2023-03-15T20:32:45.713Z,99957.56
2023-03-15T20:35:14.061Z,99962.53
2023-03-15T20:37:43.063Z,99971.94
2023-03-15T20:40:13.428Z,99961.28
2023-03-15T20:42:42.320Z,99971.31
2023-03-15T20:45:13.816Z,99967.72
2023-03-15T20:47:42.883Z,99967.44
2023-03-15T20:50:13.201Z,99973.53
2023-03-15T20:52:42.854Z,99975.31
2023-03-15T20:55:12.227Z,99978.94
2023-03-15T20:57:42.203Z,99986.00
2023-03-15T21:00:21.905Z,99981.84
2023-03-15T21:02:50.692Z,99978.56
2023-03-15T21:05:19.798Z,99988.41
2023-03-15T21:07:47.920Z,99995.63
2023-03-15T21:10:16.276Z,99998.41
2023-03-15T21:12:45.712Z,100003.94
2023-03-15T21:15:18.139Z,100003.28
2023-03-15T21:17:48.966Z,100008.84
2023-03-15T21:20:17.820Z,100008.31
2023-03-15T21:22:46.140Z,100018.97
2023-03-15T21:25:16.040Z,100016.63
2023-03-15T21:27:44.246Z,100023.84
2023-03-15T21:30:15.550Z,100027.59
2023-03-15T21:32:44.756Z,100029.69
2023-03-15T21:35:13.449Z,100031.94
2023-03-15T21:37:42.083Z,100036.63
2023-03-15T21:40:12.412Z,100039.03
2023-03-15T21:42:40.902Z,100043.06
2023-03-15T21:45:12.106Z,100049.59
2023-03-15T21:47:41.825Z,100041.16
2023-03-15T21:50:12.066Z,100049.19
2023-03-15T21:52:40.306Z,100049.47
2023-03-15T21:55:10.406Z,100060.00
2023-03-15T21:57:38.946Z,100062.47
2023-03-15T22:00:12.151Z,100059.03
2023-03-15T22:02:41.787Z,100068.56
2023-03-15T22:05:12.091Z,100064.13
2023-03-15T22:07:40.312Z,100068.84
2023-03-15T22:10:12.804Z,100079.66
2023-03-15T22:12:42.377Z,100069.28
2023-03-15T22:15:12.055Z,100076.50
2023-03-15T22:17:45.235Z,100080.09
2023-03-15T22:20:17.045Z,100082.56
2023-03-15T22:22:45.981Z,100083.69
2023-03-15T22:25:14.493Z,100092.53
2023-03-15T22:27:43.323Z,100093.50
2023-03-15T22:30:15.260Z,100091.97
2023-03-15T22:32:45.338Z,100093.25
2023-03-15T22:35:16.611Z,100105.25
2023-03-15T22:37:45.523Z,100101.81
2023-03-15T22:40:15.331Z,100108.72
2023-03-15T22:42:44.332Z,100120.91
2023-03-15T22:45:13.580Z,100115.50
2023-03-15T22:47:41.739Z,100120.75
2023-03-15T22:50:15.911Z,100119.94
2023-03-15T22:52:44.305Z,100120.75
2023-03-15T22:55:14.049Z,100120.63
2023-03-15T22:57:42.505Z,100124.22
2023-03-15T23:00:14.784Z,100135.56
2023-03-15T23:02:44.224Z,100140.00
2023-03-15T23:05:14.630Z,100146.22
2023-03-15T23:07:43.398Z,100148.84
2023-03-15T23:10:13.136Z,100150.50
2023-03-15T23:12:43.234Z,100150.50
2023-03-15T23:15:14.583Z,100161.88
2023-03-15T23:17:46.022Z,100162.69
2023-03-15T23:20:17.375Z,100165.47
2023-03-15T23:22:51.259Z,100176.81
2023-03-15T23:25:22.721Z,100171.81
2023-03-15T23:27:52.056Z,100175.59
2023-03-15T23:30:20.529Z,100184.44
2023-03-15T23:32:51.027Z,100189.00
2023-03-15T23:35:21.361Z,100194.94
2023-03-15T23:37:49.571Z,100202.69
2023-03-15T23:40:19.467Z,100208.34
2023-03-15T23:42:48.211Z,100214.03
2023-03-15T23:45:16.819Z,100209.75
2023-03-15T23:47:45.981Z,100221.50
2023-03-15T23:50:14.707Z,100229.94
2023-03-15T23:52:44.559Z,100228.13
2023-03-15T23:55:12.800Z,100225.66
2023-03-15T23:57:41.469Z,100230.06
